createdAt,value
2023-04-24T00:01:23.369Z,101229.58
2023-04-24T00:03:50.724Z,101225.73
2023-04-24T00:06:18.254Z,101231.11
2023-04-24T00:08:45.417Z,101226.88
2023-04-24T00:11:12.382Z,101225.19
2023-04-24T00:13:39.665Z,101223.34
2023-04-24T00:16:06.912Z,101221.90
2023-04-24T00:18:33.966Z,101217.80
2023-04-24T00:21:01.058Z,101220.54
2023-04-24T00:23:28.174Z,101218.79
2023-04-24T00:25:55.270Z,101215.42
2023-04-24T00:28:22.160Z,101216.02
2023-04-24T00:30:49.074Z,101215.98
2023-04-24T00:33:16.084Z,101214.81
2023-04-24T00:35:43.115Z,101212.14
2023-04-24T00:38:11.690Z,101211.50
2023-04-24T00:40:38.665Z,101210.95
2023-04-24T00:43:05.649Z,101211.52
2023-04-24T00:45:32.815Z,101208.77
2023-04-24T00:47:59.850Z,101207.27
2023-04-24T00:50:27.652Z,101205.06
2023-04-24T00:52:54.646Z,101201.44
2023-04-24T00:55:22.213Z,101200.58
2023-04-24T00:57:49.226Z,101199.77
2023-04-24T01:00:16.378Z,101197.01
2023-04-24T01:02:48.071Z,101196.36
2023-04-24T01:05:16.205Z,101194.02
2023-04-24T01:07:46.591Z,101192.79
2023-04-24T01:10:14.791Z,101194.50
2023-04-24T01:12:41.921Z,101191.04
2023-04-24T01:15:09.983Z,101187.92
2023-04-24T01:17:37.163Z,101183.71
2023-04-24T01:20:07.363Z,101182.15
2023-04-24T01:22:37.484Z,101180.67
2023-04-24T01:25:04.746Z,101182.79
2023-04-24T01:27:31.616Z,101183.22
2023-04-24T01:29:58.604Z,101184.70
2023-04-24T01:32:26.332Z,101188.71
2023-04-24T01:34:53.448Z,101187.84
2023-04-24T01:37:20.558Z,101187.45
2023-04-24T01:39:47.544Z,101187.60
2023-04-24T01:42:14.493Z,101187.44
2023-04-24T01:44:43.008Z,101190.09
2023-04-24T01:47:10.106Z,101186.02
2023-04-24T01:49:39.074Z,101189.63
2023-04-24T01:52:07.503Z,101190.85
2023-04-24T01:54:34.448Z,101194.99
2023-04-24T01:57:03.768Z,101197.08
2023-04-24T01:59:30.794Z,101197.89
2023-04-24T02:01:57.827Z,101195.73
2023-04-24T02:04:24.837Z,101192.80
2023-04-24T02:06:52.403Z,101191.55
2023-04-24T02:09:19.319Z,101194.14
2023-04-24T02:11:46.446Z,101200.67
2023-04-24T02:14:13.483Z,101201.82
2023-04-24T02:16:40.677Z,101200.83
2023-04-24T02:19:07.668Z,101203.81
2023-04-24T02:21:34.814Z,101200.30
2023-04-24T02:24:02.072Z,101201.58
2023-04-24T02:26:29.121Z,101199.69
2023-04-24T02:28:56.138Z,101202.79
2023-04-24T02:31:23.093Z,101204.61
2023-04-24T02:33:50.132Z,101203.85
2023-04-24T02:36:17.608Z,101205.27
2023-04-24T02:38:44.747Z,101203.12
2023-04-24T02:41:13.135Z,101209.31
2023-04-24T02:43:40.157Z,101208.61
2023-04-24T02:46:07.345Z,101207.70
2023-04-24T02:48:34.382Z,101207.41
2023-04-24T02:51:01.418Z,101205.94
2023-04-24T02:53:28.405Z,101206.26
2023-04-24T02:55:55.328Z,101207.32
2023-04-24T02:58:22.458Z,101208.10
2023-04-24T03:00:49.413Z,101206.93
2023-04-24T03:03:16.485Z,101208.46
2023-04-24T03:05:43.787Z,101208.13
2023-04-24T03:08:11.511Z,101207.24
2023-04-24T03:10:38.513Z,101206.20
2023-04-24T03:13:05.586Z,101211.13
2023-04-24T03:15:35.109Z,101208.80
2023-04-24T03:18:02.612Z,101207.35
2023-04-24T03:20:29.641Z,101212.02
2023-04-24T03:22:58.718Z,101210.02
2023-04-24T03:25:27.066Z,101212.31
2023-04-24T03:27:55.934Z,101216.36
2023-04-24T03:30:32.376Z,101220.26
2023-04-24T03:33:00.904Z,101219.48
2023-04-24T03:35:31.066Z,101220.23
2023-04-24T03:37:59.083Z,101222.27
2023-04-24T03:40:43.469Z,101227.23
2023-04-24T03:43:45.963Z,101230.98
2023-04-24T03:46:13.155Z,101229.19
2023-04-24T03:48:44.360Z,101227.49
2023-04-24T03:51:11.349Z,101228.18
2023-04-24T03:53:39.687Z,101226.17
2023-04-24T03:56:06.742Z,101233.38
2023-04-24T03:58:33.706Z,101228.83
2023-04-24T04:01:01.389Z,101230.50
2023-04-24T04:03:46.838Z,101232.23
2023-04-24T04:06:14.792Z,101232.42
2023-04-24T04:08:41.981Z,101231.45
2023-04-24T04:11:09.252Z,101232.83
2023-04-24T04:13:36.300Z,101233.85
2023-04-24T04:16:03.485Z,101237.02
2023-04-24T04:18:31.032Z,101239.94
2023-04-24T04:20:58.414Z,101240.11
2023-04-24T04:23:25.646Z,101237.33
2023-04-24T04:26:04.707Z,101241.05
2023-04-24T04:28:42.709Z,101245.39
2023-04-24T04:31:09.726Z,101242.58
2023-04-24T04:33:39.438Z,101243.37
2023-04-24T04:36:07.041Z,101243.04
2023-04-24T04:38:36.131Z,101243.84
2023-04-24T04:41:13.306Z,101243.94
2023-04-24T04:43:41.884Z,101243.65
2023-04-24T04:46:12.011Z,101241.46
2023-04-24T04:48:57.852Z,101245.31
2023-04-24T04:51:25.114Z,101240.69
2023-04-24T04:53:52.350Z,101243.70
2023-04-24T04:56:19.419Z,101244.20
2023-04-24T04:58:46.771Z,101238.78
2023-04-24T05:01:16.081Z,101243.81
2023-04-24T05:03:46.567Z,101241.28
2023-04-24T05:06:16.274Z,101238.21
2023-04-24T05:08:44.024Z,101240.41
2023-04-24T05:11:19.972Z,101241.65
2023-04-24T05:13:47.412Z,101239.36
2023-04-24T05:16:25.796Z,101240.36
2023-04-24T05:18:53.500Z,101237.56
2023-04-24T05:21:23.889Z,101236.97
2023-04-24T05:23:52.319Z,101231.20
2023-04-24T05:26:27.656Z,101232.52
2023-04-24T05:28:56.505Z,101225.68
2023-04-24T05:31:23.657Z,101225.74
2023-04-24T05:33:50.911Z,101226.66
2023-04-24T05:36:18.065Z,101226.09
2023-04-24T05:38:45.132Z,101230.09
2023-04-24T05:41:12.159Z,101226.89
2023-04-24T05:43:39.226Z,101222.58
2023-04-24T05:46:06.549Z,101222.97
2023-04-24T05:48:33.562Z,101224.45
2023-04-24T05:51:02.327Z,101226.05
2023-04-24T05:53:29.905Z,101222.69
2023-04-24T05:55:57.037Z,101222.02
2023-04-24T05:58:24.940Z,101219.73
2023-04-24T06:00:52.143Z,101219.64
2023-04-24T06:03:19.617Z,101220.96
2023-04-24T06:05:48.505Z,101219.39
2023-04-24T06:08:15.885Z,101221.02
2023-04-24T06:10:43.545Z,101219.77
2023-04-24T06:13:10.916Z,101218.98
2023-04-24T06:15:45.712Z,101221.41
2023-04-24T06:18:33.453Z,101218.74
2023-04-24T06:21:01.227Z,101220.89
2023-04-24T06:23:28.453Z,101224.02
2023-04-24T06:25:56.936Z,101221.60
2023-04-24T06:28:26.354Z,101227.60
2023-04-24T06:30:54.120Z,101229.80
2023-04-24T06:33:23.817Z,101233.77
2023-04-24T06:35:52.871Z,101234.85
2023-04-24T06:38:19.940Z,101235.36
2023-04-24T06:40:49.902Z,101236.04
2023-04-24T06:43:20.827Z,101235.73
2023-04-24T06:45:48.744Z,101233.95
2023-04-24T06:48:16.434Z,101233.50
2023-04-24T06:50:43.439Z,101237.02
2023-04-24T06:53:12.289Z,101237.85
2023-04-24T06:55:39.684Z,101235.59
2023-04-24T06:58:07.229Z,101234.89
2023-04-24T07:00:37.177Z,101236.06
2023-04-24T07:03:06.503Z,101236.89
2023-04-24T07:05:36.569Z,101238.56
2023-04-24T07:08:08.036Z,101236.70
2023-04-24T07:10:37.195Z,101235.98
2023-04-24T07:13:06.323Z,101232.92
2023-04-24T07:15:33.726Z,101234.10
2023-04-24T07:18:04.026Z,101233.57
2023-04-24T07:20:36.161Z,101231.70
2023-04-24T07:23:04.345Z,101230.48
2023-04-24T07:25:32.552Z,101231.65
2023-04-24T07:27:59.856Z,101232.73
2023-04-24T07:30:36.906Z,101231.66
2023-04-24T07:33:03.889Z,101229.44
2023-04-24T07:35:38.404Z,101229.51
2023-04-24T07:38:06.477Z,101227.05
2023-04-24T07:40:39.787Z,101228.89
2023-04-24T07:43:12.616Z,101230.66
2023-04-24T07:45:44.406Z,101229.60
2023-04-24T07:48:17.732Z,101231.98
2023-04-24T07:50:47.940Z,101232.91
2023-04-24T07:53:16.086Z,101231.17
2023-04-24T07:55:43.471Z,101235.94
2023-04-24T07:58:10.660Z,101229.66
2023-04-24T08:00:40.227Z,101225.20
2023-04-24T08:03:07.497Z,101225.30
2023-04-24T08:05:35.090Z,101227.08
2023-04-24T08:08:02.250Z,101224.48
2023-04-24T08:10:29.624Z,101226.19
2023-04-24T08:12:56.981Z,101227.58
2023-04-24T08:15:24.085Z,101221.71
2023-04-24T08:17:51.878Z,101222.55
2023-04-24T08:20:19.084Z,101222.42
2023-04-24T08:22:48.871Z,101221.64
2023-04-24T08:25:16.324Z,101222.90
2023-04-24T08:27:43.752Z,101224.20
2023-04-24T08:30:11.187Z,101222.30
2023-04-24T08:32:38.619Z,101224.27
2023-04-24T08:35:07.011Z,101221.70
2023-04-24T08:37:34.317Z,101221.02
2023-04-24T08:40:01.926Z,101218.20
2023-04-24T08:42:29.596Z,101218.70
2023-04-24T08:45:01.740Z,101221.98
2023-04-24T08:47:28.866Z,101220.02
2023-04-24T08:49:57.917Z,101219.66
2023-04-24T08:52:29.754Z,101220.06
2023-04-24T08:54:56.863Z,101221.80
2023-04-24T08:57:23.840Z,101219.54
2023-04-24T08:59:51.171Z,101219.05
2023-04-24T09:02:27.059Z,101221.91
2023-04-24T09:05:00.800Z,101217.55
2023-04-24T09:07:42.063Z,101216.69
2023-04-24T09:10:21.449Z,101217.27
2023-04-24T09:12:48.677Z,101214.75
2023-04-24T09:15:16.560Z,101211.12
2023-04-24T09:17:46.865Z,101208.23
2023-04-24T09:20:13.977Z,101203.95
2023-04-24T09:22:42.439Z,101200.21
2023-04-24T09:25:10.221Z,101203.68
2023-04-24T09:27:37.324Z,101202.35
2023-04-24T09:30:08.777Z,101201.56
2023-04-24T09:32:36.422Z,101200.55
2023-04-24T09:35:13.260Z,101196.08
2023-04-24T09:37:49.848Z,101194.80
2023-04-24T09:40:21.760Z,101194.74
2023-04-24T09:42:58.197Z,101197.63
2023-04-24T09:45:43.500Z,101195.23
2023-04-24T09:48:11.411Z,101192.76
2023-04-24T09:50:38.916Z,101190.36
2023-04-24T09:53:08.479Z,101190.08
2023-04-24T09:55:40.275Z,101188.43
2023-04-24T09:58:08.860Z,101184.79
2023-04-24T10:00:36.241Z,101185.23
2023-04-24T10:03:05.945Z,101177.91
2023-04-24T10:05:37.942Z,101179.75
2023-04-24T10:08:14.573Z,101179.51
2023-04-24T10:10:50.570Z,101179.17
2023-04-24T10:13:17.859Z,101173.63
2023-04-24T10:15:45.406Z,101168.37
2023-04-24T10:18:15.280Z,101170.32
2023-04-24T10:20:42.773Z,101170.20
2023-04-24T10:23:09.890Z,101170.43
2023-04-24T10:25:40.557Z,101170.86
2023-04-24T10:28:09.765Z,101173.65
2023-04-24T10:30:38.771Z,101177.03
2023-04-24T10:33:07.022Z,101173.06
2023-04-24T10:35:43.048Z,101178.38
2023-04-24T10:38:14.716Z,101175.98
2023-04-24T10:40:43.431Z,101175.35
2023-04-24T10:43:12.371Z,101178.32
2023-04-24T10:45:47.627Z,101178.02
2023-04-24T10:48:20.516Z,101179.85
2023-04-24T10:50:54.685Z,101177.35
2023-04-24T10:53:28.038Z,101173.15
2023-04-24T10:55:59.608Z,101170.48
2023-04-24T10:58:46.094Z,101173.59
2023-04-24T11:01:30.637Z,101178.35
2023-04-24T11:04:02.197Z,101178.49
2023-04-24T11:06:33.099Z,101177.71
2023-04-24T11:09:13.577Z,101175.89
2023-04-24T11:11:46.360Z,101174.17
2023-04-24T11:14:16.833Z,101173.73
2023-04-24T11:16:56.358Z,101176.42
2023-04-24T11:19:26.807Z,101175.83
2023-04-24T11:22:15.413Z,101176.88
2023-04-24T11:24:48.491Z,101178.23
2023-04-24T11:27:23.022Z,101176.08
2023-04-24T11:29:56.767Z,101171.05
2023-04-24T11:32:33.650Z,101173.21
2023-04-24T11:35:20.257Z,101168.46
2023-04-24T11:38:18.726Z,101172.31
2023-04-24T11:40:40.495Z,101168.69
2023-04-24T11:43:09.946Z,101166.41
2023-04-24T11:45:37.122Z,101165.76
2023-04-24T11:48:04.951Z,101159.34
2023-04-24T11:50:32.236Z,101160.61
2023-04-24T11:53:00.217Z,101158.52
2023-04-24T11:55:28.384Z,101155.16
2023-04-24T11:58:00.712Z,101151.00
2023-04-24T12:00:39.416Z,101146.77
2023-04-24T12:03:12.907Z,101140.80
2023-04-24T12:05:41.123Z,101138.73
2023-04-24T12:08:08.818Z,101134.22
2023-04-24T12:10:38.799Z,101132.55
2023-04-24T12:13:06.607Z,101131.23
2023-04-24T12:15:39.242Z,101130.60
2023-04-24T12:18:10.745Z,101129.40
2023-04-24T12:20:37.836Z,101130.77
2023-04-24T12:23:04.950Z,101127.79
2023-04-24T12:25:35.694Z,101127.36
2023-04-24T12:28:06.097Z,101122.08
2023-04-24T12:31:04.091Z,101118.86
2023-04-24T12:33:35.823Z,101113.80
2023-04-24T12:36:03.600Z,101109.65
2023-04-24T12:38:42.111Z,101106.33
2023-04-24T12:41:11.145Z,101101.37
2023-04-24T12:43:38.589Z,101099.88
2023-04-24T12:46:06.231Z,101100.63
2023-04-24T12:48:33.640Z,101098.70
2023-04-24T12:51:02.776Z,101097.70
2023-04-24T12:53:33.316Z,101093.98
2023-04-24T12:58:53.229Z,101092.89
2023-04-24T13:01:20.584Z,101090.09
2023-04-24T13:03:47.930Z,101088.36
2023-04-24T13:06:15.263Z,101092.80
2023-04-24T13:08:45.403Z,101087.09
2023-04-24T13:11:12.621Z,101083.13
2023-04-24T13:13:40.000Z,101081.16
2023-04-24T13:16:13.466Z,101078.77
2023-04-24T13:18:41.120Z,101075.00
2023-04-24T13:21:08.162Z,101076.09
2023-04-24T13:23:36.029Z,101075.55
2023-04-24T13:26:06.242Z,101077.83
2023-04-24T13:28:33.475Z,101074.52
2023-04-24T13:31:00.567Z,101073.67
2023-04-24T13:33:33.307Z,101070.19
2023-04-24T13:36:01.227Z,101070.10
2023-04-24T13:38:28.257Z,101067.83
2023-04-24T13:40:56.021Z,101061.73
2023-04-24T13:43:23.213Z,101065.59
2023-04-24T13:45:50.452Z,101065.48
2023-04-24T13:48:18.066Z,101069.31
2023-04-24T13:50:45.683Z,101070.57
2023-04-24T13:53:13.875Z,101063.66
2023-04-24T13:55:41.279Z,101066.39
2023-04-24T13:58:08.765Z,101068.61
2023-04-24T14:00:36.389Z,101067.35
2023-04-24T14:03:03.593Z,101066.17
2023-04-24T14:05:31.181Z,101066.88
2023-04-24T14:07:58.439Z,101067.23
2023-04-24T14:10:28.432Z,101067.95
2023-04-24T14:13:06.675Z,101067.63
2023-04-24T14:15:33.830Z,101064.35
2023-04-24T14:18:05.681Z,101063.04
2023-04-24T14:20:33.776Z,101059.31
2023-04-24T14:23:00.864Z,101060.92
2023-04-24T14:25:28.169Z,101060.80
2023-04-24T14:31:10.372Z,101050.86
2023-04-24T14:33:37.764Z,101046.17
2023-04-24T14:36:06.834Z,101048.52
2023-04-24T14:38:34.019Z,101050.14
2023-04-24T14:41:10.538Z,101050.48
2023-04-24T14:43:40.519Z,101048.77
2023-04-24T14:46:07.824Z,101050.64
2023-04-24T14:48:34.836Z,101046.72
2023-04-24T14:51:01.998Z,101046.88
2023-04-24T14:53:29.074Z,101046.38
2023-04-24T14:55:56.658Z,101046.75
2023-04-24T14:58:24.509Z,101046.36
2023-04-24T15:00:54.092Z,101040.68
2023-04-24T15:03:21.929Z,101039.30
2023-04-24T15:05:52.204Z,101038.27
2023-04-24T15:08:19.225Z,101030.36
2023-04-24T15:10:46.481Z,101031.03
2023-04-24T15:13:13.461Z,101029.15
2023-04-24T15:15:41.175Z,101025.30
2023-04-24T15:18:09.862Z,101026.41
2023-04-24T15:20:38.630Z,101021.98
2023-04-24T15:23:09.840Z,101019.08
2023-04-24T15:25:37.345Z,101012.94
2023-04-24T15:28:04.720Z,101013.45
2023-04-24T15:30:31.649Z,101010.25
2023-04-24T15:32:58.601Z,101008.17
2023-04-24T15:35:25.688Z,101008.35
2023-04-24T15:37:52.699Z,101009.23
2023-04-24T15:40:19.679Z,101004.48
2023-04-24T15:42:47.235Z,101007.04
2023-04-24T15:45:14.279Z,101008.27
2023-04-24T15:47:41.206Z,101004.38
2023-04-24T15:50:14.325Z,101004.61
2023-04-24T15:52:41.618Z,101003.23
2023-04-24T15:55:08.874Z,101001.67
2023-04-24T15:57:35.993Z,101002.21
2023-04-24T16:00:07.515Z,100998.74
2023-04-24T16:02:39.162Z,100995.88
2023-04-24T16:05:07.544Z,100993.02
2023-04-24T16:07:34.871Z,100989.63
2023-04-24T16:10:01.942Z,100985.56
2023-04-24T16:12:28.940Z,100985.53
2023-04-24T16:14:56.064Z,100985.94
2023-04-24T16:17:23.477Z,100978.30
2023-04-24T16:19:50.471Z,100980.20
2023-04-24T16:22:17.487Z,100975.60
2023-04-24T16:24:44.730Z,100976.20
2023-04-24T16:27:12.305Z,100979.61
2023-04-24T16:29:39.557Z,100975.09
2023-04-24T16:32:06.585Z,100976.77
2023-04-24T16:34:33.799Z,100973.77
2023-04-24T16:37:00.715Z,100967.70
2023-04-24T16:39:28.166Z,100966.32
2023-04-24T16:41:56.662Z,100965.31
2023-04-24T16:44:25.037Z,100965.49
2023-04-24T16:46:52.033Z,100964.80
2023-04-24T16:49:18.980Z,100970.02
2023-04-24T16:51:46.027Z,100969.53
2023-04-24T16:54:13.181Z,100969.71
2023-04-24T16:56:40.156Z,100970.02
2023-04-24T16:59:08.253Z,100969.52
2023-04-24T17:01:35.354Z,100971.70
2023-04-24T17:04:02.609Z,100976.06
2023-04-24T17:06:29.602Z,100978.95
2023-04-24T17:08:56.662Z,100974.38
2023-04-24T17:11:23.509Z,100974.41
2023-04-24T17:13:50.463Z,100974.49
2023-04-24T17:16:17.407Z,100975.11
2023-04-24T17:18:44.469Z,100979.64
2023-04-24T17:21:11.469Z,100979.83
2023-04-24T17:23:38.531Z,100978.11
2023-04-24T17:26:05.928Z,100982.80
2023-04-24T17:28:33.049Z,100980.65
2023-04-24T17:31:00.272Z,100981.77
2023-04-24T17:33:27.572Z,100981.07
2023-04-24T17:35:54.823Z,100989.45
2023-04-24T17:38:21.749Z,100988.23
2023-04-24T17:40:52.991Z,100989.49
2023-04-24T17:43:23.498Z,100991.42
2023-04-24T17:45:51.435Z,100991.70
2023-04-24T17:48:18.849Z,100994.34
2023-04-24T17:50:46.171Z,100994.78
2023-04-24T17:53:13.682Z,100996.13
2023-04-24T17:55:42.085Z,100996.27
2023-04-24T17:58:09.345Z,100995.29
2023-04-24T18:00:36.478Z,100998.14
2023-04-24T18:03:03.980Z,100998.84
2023-04-24T18:05:31.820Z,101002.55
2023-04-24T18:07:59.047Z,101000.52
2023-04-24T18:10:26.341Z,101002.34
2023-04-24T18:12:53.307Z,101004.44
2023-04-24T18:15:20.556Z,101004.89
2023-04-24T18:17:47.737Z,101007.17
2023-04-24T18:20:15.806Z,101010.05
2023-04-24T18:22:42.994Z,101010.23
2023-04-24T18:25:10.605Z,101011.37
2023-04-24T18:27:38.373Z,101010.20
2023-04-24T18:30:06.871Z,101011.21
2023-04-24T18:32:34.085Z,101012.70
2023-04-24T18:35:01.060Z,101012.51
2023-04-24T18:37:28.201Z,101011.92
2023-04-24T18:39:56.540Z,101011.40
2023-04-24T18:42:23.598Z,101012.11
2023-04-24T18:44:51.505Z,101012.84
2023-04-24T18:47:18.466Z,101009.29
2023-04-24T18:49:45.376Z,101007.45
2023-04-24T18:52:12.317Z,101008.92
2023-04-24T18:54:39.198Z,101002.80
2023-04-24T18:57:06.757Z,101004.27
2023-04-24T18:59:33.737Z,101005.34
2023-04-24T19:02:00.805Z,101005.95
2023-04-24T19:04:29.828Z,101006.73
2023-04-24T19:06:56.797Z,101001.93
2023-04-24T19:09:23.765Z,101001.42
2023-04-24T19:11:50.858Z,101003.44
2023-04-24T19:14:17.945Z,101001.36
2023-04-24T19:16:45.208Z,101001.95
2023-04-24T19:19:12.287Z,101000.13
2023-04-24T19:21:39.295Z,100998.41
2023-04-24T19:24:06.560Z,100996.84
2023-04-24T19:26:33.524Z,100997.44
2023-04-24T19:29:00.716Z,100996.40
2023-04-24T19:31:27.855Z,100992.48
2023-04-24T19:33:54.770Z,100991.48
2023-04-24T19:36:21.829Z,100988.05
2023-04-24T19:38:51.050Z,100986.36
2023-04-24T19:41:18.366Z,100984.52
2023-04-24T19:43:47.470Z,100984.64
2023-04-24T19:46:14.550Z,100986.29
2023-04-24T19:48:41.546Z,100983.36
2023-04-24T19:51:08.588Z,100980.95
2023-04-24T19:53:35.471Z,100979.41
2023-04-24T19:56:02.351Z,100978.25
2023-04-24T19:58:31.256Z,100973.98
2023-04-24T20:00:58.364Z,100975.49
2023-04-24T20:03:32.736Z,100975.48
2023-04-24T20:06:00.971Z,100981.06
2023-04-24T20:08:27.839Z,100978.73
2023-04-24T20:10:58.033Z,100978.61
2023-04-24T20:13:27.744Z,100980.38
2023-04-24T20:15:54.948Z,100975.88
2023-04-24T20:18:21.849Z,100974.20
2023-04-24T20:20:48.833Z,100971.52
2023-04-24T20:23:15.909Z,100971.81
2023-04-24T20:25:42.962Z,100971.05
2023-04-24T20:28:09.872Z,100969.42
2023-04-24T20:30:38.127Z,100969.63
2023-04-24T20:33:05.114Z,100966.52
2023-04-24T20:35:32.418Z,100966.48
2023-04-24T20:37:59.776Z,100963.83
2023-04-24T20:40:28.220Z,100960.83
2023-04-24T20:42:56.572Z,100966.02
2023-04-24T20:45:24.254Z,100963.64
2023-04-24T20:47:51.357Z,100962.31
2023-04-24T20:50:18.938Z,100959.90
2023-04-24T20:52:45.930Z,100960.78
2023-04-24T20:55:13.066Z,100960.17
2023-04-24T20:57:40.218Z,100959.64
2023-04-24T21:00:08.587Z,100963.36
2023-04-24T21:02:35.732Z,100965.49
2023-04-24T21:05:04.435Z,100961.80
2023-04-24T21:07:31.459Z,100959.27
2023-04-24T21:09:58.422Z,100955.83
2023-04-24T21:12:25.406Z,100960.77
2023-04-24T21:14:52.345Z,100958.39
2023-04-24T21:17:19.337Z,100957.70
2023-04-24T21:19:46.237Z,100959.95
2023-04-24T21:22:13.178Z,100960.79
2023-04-24T21:24:40.056Z,100965.67
2023-04-24T21:27:07.613Z,100962.01
2023-04-24T21:29:35.878Z,100959.12
2023-04-24T21:32:03.624Z,100958.89
2023-04-24T21:34:30.796Z,100960.05
2023-04-24T21:36:57.759Z,100959.05
2023-04-24T21:39:25.093Z,100964.65
2023-04-24T21:41:52.148Z,100962.69
2023-04-24T21:44:19.080Z,100959.77
2023-04-24T21:46:46.614Z,100961.30
2023-04-24T21:49:13.684Z,100958.98
2023-04-24T21:51:40.597Z,100959.58
2023-04-24T21:54:07.520Z,100960.84
2023-04-24T21:56:34.461Z,100961.94
2023-04-24T21:59:01.521Z,100964.70
2023-04-24T22:01:28.511Z,100967.02
2023-04-24T22:03:55.958Z,100965.27
2023-04-24T22:06:23.208Z,100963.65
2023-04-24T22:08:50.135Z,100961.25
2023-04-24T22:11:26.909Z,100961.21
2023-04-24T22:13:55.034Z,100961.23
2023-04-24T22:16:24.044Z,100961.38
2023-04-24T22:18:53.789Z,100956.86
2023-04-24T22:21:21.527Z,100954.79
2023-04-24T22:23:48.720Z,100952.23
2023-04-24T22:26:16.072Z,100951.08
2023-04-24T22:28:42.975Z,100948.98
2023-04-24T22:31:09.974Z,100943.83
2023-04-24T22:33:37.034Z,100946.05
2023-04-24T22:36:04.232Z,100945.73
2023-04-24T22:38:31.168Z,100941.05
2023-04-24T22:40:58.127Z,100939.30
2023-04-24T22:43:25.221Z,100938.05
2023-04-24T22:45:52.180Z,100936.01
2023-04-24T22:48:19.110Z,100933.61
2023-04-24T22:50:46.065Z,100929.83
2023-04-24T22:53:13.072Z,100923.32
2023-04-24T22:55:40.030Z,100920.83
2023-04-24T22:58:07.002Z,100917.45
2023-04-24T23:00:34.155Z,100918.84
2023-04-24T23:03:01.273Z,100915.55
2023-04-24T23:05:28.418Z,100913.23
2023-04-24T23:07:55.408Z,100913.57
2023-04-24T23:10:22.720Z,100909.34
2023-04-24T23:12:49.811Z,100905.52
2023-04-24T23:15:16.932Z,100904.16
2023-04-24T23:17:43.998Z,100900.81
2023-04-24T23:20:13.770Z,100899.84
2023-04-24T23:22:41.062Z,100897.08
2023-04-24T23:25:11.395Z,100888.96
2023-04-24T23:27:38.656Z,100888.45
2023-04-24T23:30:07.127Z,100883.44
2023-04-24T23:32:34.114Z,100884.69
2023-04-24T23:35:01.034Z,100883.82
2023-04-24T23:37:28.075Z,100887.17
2023-04-24T23:39:54.920Z,100883.13
2023-04-24T23:42:21.907Z,100884.28
2023-04-24T23:44:48.895Z,100883.16
2023-04-24T23:47:15.936Z,100883.37
2023-04-24T23:49:42.889Z,100885.33
2023-04-24T23:52:09.900Z,100888.55
2023-04-24T23:54:37.180Z,100886.98
2023-04-24T23:57:04.671Z,100886.09
2023-04-24T23:59:31.860Z,100886.11
